Terminal Aerodrome Forecast
Issued by NWS

Home | Current Version | Previous Version | Text Only | Print | Product List | Glossary On
Versions: 1 2 3 4 5 6 7 8 9 10 11 12 13 14 15 16 17 18 19 20 21 22 23 24 25 26
854
FTUS44 KMAF 050801 AAA
TAFINK
TAF AMD
KINK 050801Z 0508/0606 31007KT P6SM SCT020 BKN150
     FM050900 VRB04KT 5SM BR SCT015 OVC050
      TEMPO 0509/0512 OVC015
     FM051700 25014KT P6SM SCT150=

USA.gov is the U.S. government's official web portal to all federal, state and local government web resources and services.